createdAt,value
2022-10-14T13:46:49.894Z,31.23
2022-10-14T13:52:45.364Z,33.67
2022-10-14T13:58:13.204Z,31.63
2022-10-14T14:03:23.379Z,32.73
2022-10-14T14:08:39.667Z,29.40
2022-10-14T14:13:54.400Z,44.83
2022-10-14T14:19:08.706Z,32.37
2022-10-14T14:24:18.749Z,35.20
2022-10-14T14:29:29.126Z,33.27
2022-10-14T14:34:34.089Z,34.40
2022-10-14T14:39:38.440Z,58.80
2022-10-14T14:44:43.493Z,36.83
2022-10-14T14:49:51.533Z,35.07
2022-10-14T14:55:00.775Z,38.50
2022-10-14T15:00:06.978Z,38.80
2022-10-14T15:05:12.341Z,31.63
2022-10-14T15:10:23.720Z,42.90
2022-10-14T15:15:30.557Z,42.07
2022-10-14T15:20:36.756Z,44.27
2022-10-14T15:25:40.853Z,49.37
2022-10-14T15:30:53.463Z,42.43
2022-10-14T15:36:00.853Z,36.90
2022-10-14T15:41:06.824Z,32.57
2022-10-14T15:46:31.582Z,34.73
2022-10-14T15:51:36.431Z,37.83
2022-10-14T15:56:40.592Z,39.10
2022-10-14T16:01:45.196Z,40.03
2022-10-14T16:06:50.403Z,42.83
2022-10-14T16:11:58.279Z,41.37
2022-10-14T16:17:03.024Z,42.03
2022-10-14T16:22:07.811Z,48.67
2022-10-14T16:27:14.676Z,60.10
2022-10-14T16:32:18.219Z,40.67
2022-10-14T16:37:24.002Z,46.17
2022-10-14T16:42:27.882Z,36.73
2022-10-14T16:47:31.355Z,34.57
2022-10-14T16:59:40.521Z,42.40
2022-10-14T17:10:44.668Z,38.07
2022-10-14T17:15:50.944Z,44.83
2022-10-14T17:21:07.468Z,46.93
2022-10-14T17:26:18.644Z,53.70
2022-10-14T17:31:23.373Z,55.73
2022-10-14T17:36:31.064Z,60.33
2022-10-14T17:41:37.063Z,58.10
2022-10-14T17:46:42.283Z,60.50
2022-10-14T17:53:04.811Z,60.83
2022-10-14T17:58:14.903Z,89.03
2022-10-14T18:03:20.486Z,62.10
2022-10-14T18:08:28.195Z,60.10
2022-10-14T18:13:57.046Z,63.80
2022-10-14T18:19:05.894Z,80.53
2022-10-14T18:24:55.958Z,72.73
2022-10-14T18:30:06.585Z,68.83
2022-10-14T18:35:13.953Z,73.53
2022-10-14T18:40:21.954Z,69.10
2022-10-14T18:45:35.258Z,70.60
2022-10-14T18:50:41.489Z,70.23
2022-10-14T18:55:45.969Z,68.63
2022-10-14T19:00:52.774Z,71.63
2022-10-14T19:06:00.793Z,66.90
2022-10-14T19:11:06.053Z,65.90
2022-10-14T19:16:16.569Z,70.37
2022-10-14T19:21:22.893Z,77.50
2022-10-14T19:26:29.872Z,93.57
2022-10-14T19:31:44.994Z,88.77
2022-10-14T19:36:53.333Z,73.90
2022-10-14T19:41:58.316Z,69.77
2022-10-14T19:47:07.152Z,61.90
2022-10-14T19:52:11.236Z,60.87
2022-10-14T20:02:52.327Z,63.30
2022-10-14T20:07:57.726Z,63.07
2022-10-14T20:13:03.897Z,57.63
2022-10-14T20:18:11.426Z,89.10
2022-10-14T20:23:21.117Z,90.77
2022-10-14T20:28:32.153Z,77.60
2022-10-14T20:33:53.288Z,86.20
2022-10-14T20:39:00.090Z,82.03
2022-10-14T20:44:04.776Z,69.30
2022-10-14T20:49:11.196Z,67.10
2022-10-14T20:54:16.935Z,58.90
2022-10-14T20:59:21.299Z,61.33
2022-10-14T21:04:27.083Z,61.57
2022-10-14T21:09:32.731Z,61.17
2022-10-14T21:14:41.991Z,61.63
2022-10-14T21:19:47.247Z,61.17
2022-10-14T21:25:00.608Z,56.77
2022-10-14T21:30:04.836Z,58.53
2022-10-14T21:35:11.770Z,62.23
2022-10-14T21:40:17.110Z,62.40
2022-10-14T21:45:21.762Z,65.90
2022-10-14T21:50:28.334Z,60.47
2022-10-14T21:55:36.627Z,61.20
2022-10-14T22:00:40.773Z,67.47
2022-10-14T22:06:14.859Z,61.07
2022-10-14T22:11:21.126Z,63.63
2022-10-14T22:16:25.457Z,64.67
2022-10-14T22:21:32.837Z,60.13
2022-10-14T22:26:38.029Z,55.97
2022-10-14T22:31:42.388Z,57.37
2022-10-14T22:36:48.078Z,53.43
2022-10-14T22:41:52.585Z,52.30
2022-10-14T22:46:56.602Z,58.00
2022-10-14T22:52:02.117Z,47.10
2022-10-14T22:57:06.422Z,44.43
2022-10-14T23:02:10.577Z,46.53
2022-10-14T23:07:15.766Z,45.50
2022-10-14T23:12:19.891Z,52.40
2022-10-14T23:17:23.789Z,92.33
2022-10-14T23:22:29.164Z,47.10
2022-10-14T23:27:36.229Z,49.97
2022-10-14T23:32:40.662Z,54.93
2022-10-14T23:37:46.734Z,55.53
2022-10-14T23:42:51.128Z,45.57
2022-10-14T23:47:55.112Z,50.67
2022-10-14T23:53:01.546Z,47.13
2022-10-14T23:58:05.460Z,49.87
